Kamsack, Canada
Current Conditions -  °F | °C
As of 11:00 PM on Friday 24 Oct 2014 (Local Time) from CYQV Reporting Station
Clear Clear  
Wind Chill: 35°   Ceiling: Unl
Heat Index: 43°   Visibility: 9mi
Dew Point: 28°   Wind: 16mph
Humidity: 57%   Direction: 280°W
Pressure: 29.9"   Gusts: NA
Location:  51.57°N, 101.9°W
Report Text: CYQV 250500Z AUTO 28014KT 9SM CLR 06/M02 A2990 RMK SLP138
Loading
Personal Weather Stations






























Interactive Weather Map
Tropical Storm Tracking
New forecast layout! Learn more

10-Day Weather Forecast

Advertisements
Track Severe Weather on mobile